Time;durP1;ratioP1;P1;durP2;ratioP2;P2;SDS_P1;SDS_P2;PMS_P1;PMS_P2;Temp;Humidity;BMP_temperature;BMP_pressure;BME280_temperature;BME280_humidity;BME280_pressure;Samples;Min_cycle;Max_cycle;Signal;HPM_P1;HPM_P2
2022/06/22 00:00:44;;;;;;;3.03;1.20;;;12.70;99.90;;;;;;5015171;28;20022;-68
2022/06/22 00:03:12;;;;;;;5.10;1.38;;;12.70;99.90;;;;;;5016644;28;20033;-68
2022/06/22 00:05:49;;;;;;;2.97;1.08;;;12.80;99.90;;;;;;5016211;28;20068;-68
2022/06/22 00:08:28;;;;;;;2.13;0.85;;;12.70;99.90;;;;;;5016586;28;20124;-68
2022/06/22 00:11:02;;;;;;;2.75;1.52;;;12.80;99.90;;;;;;5016395;28;20025;-68
2022/06/22 00:13:32;;;;;;;2.75;1.05;;;13.00;99.90;;;;;;5016450;28;20026;-68
2022/06/22 00:16:03;;;;;;;2.78;1.10;;;13.00;99.90;;;;;;5016128;28;20052;-68
2022/06/22 00:18:43;;;;;;;6.28;1.50;;;13.10;99.90;;;;;;5016460;28;20073;-68
2022/06/22 00:21:49;;;;;;;2.13;0.95;;;13.10;99.90;;;;;;5016682;28;20018;-68
2022/06/22 00:24:26;;;;;;;4.25;1.20;;;13.20;99.90;;;;;;5016214;28;20050;-69
2022/06/22 00:27:00;;;;;;;2.97;1.00;;;13.20;99.90;;;;;;5014890;28;20022;-68
2022/06/22 00:29:35;;;;;;;2.70;0.90;;;13.30;99.90;;;;;;5016111;28;20037;-69
2022/06/22 00:32:24;;;;;;;3.05;0.80;;;13.40;99.90;;;;;;5015963;28;20022;-68
2022/06/22 00:34:51;;;;;;;3.30;1.13;;;13.50;99.90;;;;;;5015546;28;20113;-69
2022/06/22 00:37:25;;;;;;;2.92;0.80;;;13.60;99.90;;;;;;5015843;28;20033;-68
2022/06/22 00:39:54;;;;;;;3.25;1.00;;;13.80;99.90;;;;;;5016122;28;20071;-68
2022/06/22 00:42:29;;;;;;;2.28;1.17;;;13.70;99.90;;;;;;5015716;28;20108;-69
2022/06/22 00:45:07;;;;;;;2.33;0.80;;;13.70;99.90;;;;;;5015843;28;20120;-68
2022/06/22 00:47:55;;;;;;;3.80;1.10;;;13.80;99.90;;;;;;5015693;28;20105;-68
2022/06/22 00:50:50;;;;;;;1.27;0.63;;;14.00;99.90;;;;;;5015588;28;20018;-68
2022/06/22 00:53:20;;;;;;;1.55;0.73;;;14.10;99.90;;;;;;5013414;28;20371;-69
2022/06/22 00:56:18;;;;;;;2.40;0.95;;;14.10;99.90;;;;;;5014137;28;20076;-69
2022/06/22 00:59:07;;;;;;;3.28;1.13;;;14.20;99.90;;;;;;5015113;28;20026;-68
2022/06/22 01:02:06;;;;;;;1.48;0.60;;;14.30;99.90;;;;;;5015716;28;20017;-68
2022/06/22 01:04:52;;;;;;;3.85;0.80;;;14.30;99.90;;;;;;4983776;28;20033;-69
2022/06/22 01:07:54;;;;;;;2.75;0.80;;;14.40;99.90;;;;;;5015868;28;20034;-68
2022/06/22 01:10:37;;;;;;;2.30;1.05;;;14.50;99.90;;;;;;5014020;28;20026;-68
2022/06/22 01:13:17;;;;;;;4.28;1.30;;;14.60;99.90;;;;;;5015115;28;20036;-70
2022/06/22 01:15:49;;;;;;;7.22;0.90;;;14.80;99.90;;;;;;5015261;28;20022;-69
2022/06/22 01:18:22;;;;;;;3.00;0.90;;;14.90;99.90;;;;;;5015020;28;20026;-69
2022/06/22 01:20:59;;;;;;;1.55;0.52;;;14.80;99.90;;;;;;5013654;28;20034;-69
2022/06/22 01:23:29;;;;;;;3.50;0.68;;;14.90;99.90;;;;;;5015188;28;20029;-69
2022/06/22 01:26:07;;;;;;;3.38;0.57;;;15.00;99.90;;;;;;5014924;28;20029;-70
2022/06/22 01:28:34;;;;;;;2.05;0.70;;;15.10;99.90;;;;;;5014842;28;20026;-68
2022/06/22 01:31:13;;;;;;;1.15;0.70;;;15.10;99.90;;;;;;5015039;28;20021;-68
2022/06/22 01:33:49;;;;;;;1.45;0.65;;;15.20;99.90;;;;;;5014846;28;20018;-70
2022/06/22 01:36:30;;;;;;;2.95;0.80;;;15.30;99.90;;;;;;5015128;28;20022;-68
2022/06/22 01:38:58;;;;;;;2.20;0.80;;;15.20;99.90;;;;;;5014822;28;20104;-70
2022/06/22 01:41:44;;;;;;;2.17;0.80;;;15.30;99.90;;;;;;5014895;28;20029;-71
2022/06/22 01:44:14;;;;;;;2.55;0.70;;;15.40;99.90;;;;;;5014685;28;20034;-70
2022/06/22 01:47:11;;;;;;;2.83;0.70;;;15.50;99.90;;;;;;5014630;28;20037;-69
2022/06/22 01:49:46;;;;;;;1.70;0.57;;;15.60;99.90;;;;;;5014561;28;20061;-71
2022/06/22 01:52:53;;;;;;;2.65;0.77;;;15.60;99.90;;;;;;5014218;28;20053;-71
2022/06/22 01:55:26;;;;;;;1.85;1.05;;;15.80;99.90;;;;;;5014532;28;20020;-70
2022/06/22 01:58:22;;;;;;;3.97;0.82;;;15.80;99.90;;;;;;5014907;28;20114;-70
2022/06/22 02:01:00;;;;;;;2.13;0.85;;;16.00;99.90;;;;;;5007105;28;20042;-70
2022/06/22 02:04:02;;;;;;;1.85;0.73;;;15.90;99.90;;;;;;5012976;28;20022;-70
2022/06/22 02:09:47;;;;;;;1.50;0.93;;;16.10;99.90;;;;;;5014790;28;20509;-70
2022/06/22 02:12:20;;;;;;;2.97;0.70;;;16.20;99.90;;;;;;5014379;28;20021;-70
2022/06/22 02:14:59;;;;;;;1.83;0.70;;;16.10;99.90;;;;;;5014225;28;20022;-70
2022/06/22 02:17:31;;;;;;;2.38;0.60;;;16.20;99.90;;;;;;5014218;28;20409;-71
2022/06/22 02:20:19;;;;;;;1.38;0.52;;;16.40;99.90;;;;;;4996763;28;20030;-70
2022/06/22 02:22:49;;;;;;;2.40;1.02;;;16.60;99.90;;;;;;5014244;28;20094;-70
2022/06/22 02:25:19;;;;;;;1.45;0.50;;;16.60;99.90;;;;;;5013981;28;20064;-70
2022/06/22 02:27:47;;;;;;;2.70;0.80;;;16.50;99.90;;;;;;5012687;28;20029;-71
2022/06/22 02:30:14;;;;;;;3.20;0.80;;;16.60;99.90;;;;;;5013904;28;20017;-70
2022/06/22 02:32:44;;;;;;;2.38;0.60;;;16.70;99.90;;;;;;5013880;28;20030;-71
2022/06/22 02:35:14;;;;;;;1.27;0.55;;;16.70;99.90;;;;;;5012702;28;20374;-70
2022/06/22 02:37:56;;;;;;;1.77;0.60;;;16.80;99.90;;;;;;5013816;28;20107;-71
2022/06/22 02:40:29;;;;;;;1.00;0.60;;;16.90;99.90;;;;;;5014265;28;20022;-71
2022/06/22 02:45:44;;;;;;;1.35;0.40;;;17.00;99.90;;;;;;5013671;28;20056;-70
2022/06/22 02:48:14;;;;;;;1.83;0.75;;;17.10;99.90;;;;;;5013517;28;20025;-70
2022/06/22 02:50:49;;;;;;;2.67;0.60;;;17.10;99.90;;;;;;5013699;28;20092;-71
2022/06/22 02:53:30;;;;;;;1.95;0.57;;;17.10;99.90;;;;;;5014024;28;20121;-70
2022/06/22 02:55:57;;;;;;;1.35;0.43;;;16.90;99.90;;;;;;5013535;28;20486;-70
2022/06/22 02:58:34;;;;;;;1.52;0.50;;;16.80;99.90;;;;;;5013490;28;20565;-71
2022/06/22 03:01:12;;;;;;;1.25;0.40;;;16.80;99.90;;;;;;5013568;28;20022;-71
2022/06/22 03:03:43;;;;;;;1.73;0.57;;;17.00;99.90;;;;;;5013409;28;20026;-70
2022/06/22 03:06:12;;;;;;;2.25;0.50;;;17.00;99.90;;;;;;5013002;28;20401;-70
2022/06/22 03:08:40;;;;;;;2.47;0.45;;;17.10;99.90;;;;;;5013315;28;20390;-71
2022/06/22 03:11:11;;;;;;;2.42;0.80;;;17.10;99.90;;;;;;5011847;28;20026;-71
2022/06/22 03:13:41;;;;;;;1.83;0.63;;;17.10;99.90;;;;;;5013461;28;20025;-71
2022/06/22 03:16:34;;;;;;;1.60;0.60;;;17.30;99.90;;;;;;5013495;28;20478;-71
2022/06/22 03:19:06;;;;;;;2.33;0.60;;;17.20;99.90;;;;;;5013304;28;20041;-71
2022/06/22 03:21:34;;;;;;;1.88;0.65;;;17.00;99.90;;;;;;5013591;28;20049;-70
2022/06/22 03:24:11;;;;;;;0.70;0.40;;;17.20;99.90;;;;;;5013168;28;20101;-70
2022/06/22 03:26:43;;;;;;;3.28;0.90;;;17.30;99.90;;;;;;5013091;28;20034;-71
2022/06/22 03:29:34;;;;;;;2.72;0.60;;;17.50;99.90;;;;;;5011833;28;20018;-71
2022/06/22 03:32:16;;;;;;;1.60;0.50;;;17.30;99.90;;;;;;5013156;28;20062;-70
2022/06/22 03:34:48;;;;;;;2.17;0.35;;;17.20;99.90;;;;;;5011733;28;20030;-71
2022/06/22 03:37:52;;;;;;;4.03;0.68;;;16.90;99.90;;;;;;5012855;28;20030;-72
2022/06/22 03:40:31;;;;;;;2.97;0.80;;;16.60;99.90;;;;;;5011454;28;20042;-71
2022/06/22 03:43:25;;;;;;;2.08;0.50;;;16.60;99.90;;;;;;5013016;28;20026;-72
2022/06/22 03:46:01;;;;;;;1.42;0.47;;;16.60;99.90;;;;;;5007341;28;20038;-72
2022/06/22 03:48:29;;;;;;;1.90;0.60;;;16.60;99.90;;;;;;5012975;28;20033;-72
2022/06/22 03:51:36;;;;;;;2.05;0.57;;;16.70;99.90;;;;;;5011566;28;20122;-71
2022/06/22 03:54:18;;;;;;;2.00;0.70;;;16.90;99.90;;;;;;4972004;28;20026;-71
2022/06/22 03:56:51;;;;;;;1.73;0.60;;;16.90;99.90;;;;;;5010366;28;20034;-72
2022/06/22 03:59:18;;;;;;;1.58;0.60;;;16.90;99.90;;;;;;5012985;28;20033;-72
2022/06/22 04:01:45;;;;;;;1.25;0.50;;;16.90;99.90;;;;;;5012737;28;20061;-72
2022/06/22 04:04:13;;;;;;;1.25;0.45;;;16.80;99.90;;;;;;5011553;28;20027;-71
2022/06/22 04:06:46;;;;;;;2.25;0.50;;;16.80;99.90;;;;;;5011185;28;20049;-72
2022/06/22 04:09:20;;;;;;;1.88;0.40;;;16.70;99.90;;;;;;5012962;28;20046;-71
2022/06/22 04:11:52;;;;;;;2.00;0.57;;;16.50;99.90;;;;;;5011339;28;20088;-71
2022/06/22 04:14:19;;;;;;;2.50;0.85;;;16.40;99.90;;;;;;5011425;28;20076;-72
2022/06/22 04:16:52;;;;;;;4.75;1.27;;;16.30;99.90;;;;;;5014776;28;20046;-71
2022/06/22 04:20:07;;;;;;;3.10;0.70;;;16.50;99.90;;;;;;5015086;28;20030;-71
2022/06/22 04:22:40;;;;;;;2.38;1.00;;;16.60;99.90;;;;;;4958843;28;20027;-71
2022/06/22 04:25:21;;;;;;;2.50;1.08;;;16.60;99.90;;;;;;5013474;28;20069;-71
2022/06/22 04:27:51;;;;;;;2.22;0.60;;;16.70;99.90;;;;;;5015208;28;20106;-72
2022/06/22 04:30:29;;;;;;;2.45;0.90;;;16.70;99.90;;;;;;5016299;28;20381;-71
2022/06/22 04:33:44;;;;;;;1.08;0.60;;;16.70;99.90;;;;;;5014630;28;20034;-71
2022/06/22 04:36:24;;;;;;;2.78;0.80;;;16.60;99.90;;;;;;4974914;28;20634;-71
2022/06/22 04:38:57;;;;;;;;;;;16.60;99.90;;;;;;5008744;28;20041;-71
2022/06/22 04:41:40;;;;;;;1.70;0.60;;;16.60;99.90;;;;;;5015873;28;19906;-71
2022/06/22 04:44:23;;;;;;;2.13;0.80;;;16.60;99.90;;;;;;5015345;28;20026;-70
2022/06/22 04:46:58;;;;;;;3.75;0.70;;;16.70;99.90;;;;;;5015778;28;20409;-70
2022/06/22 04:49:35;;;;;;;2.33;1.02;;;16.70;99.90;;;;;;5015872;28;20026;-71
2022/06/22 04:52:42;;;;;;;2.38;0.98;;;16.70;99.90;;;;;;5014275;28;20037;-70
2022/06/22 04:55:24;;;;;;;3.13;0.60;;;16.60;99.90;;;;;;4995557;28;20034;-71
2022/06/22 04:57:54;;;;;;;1.63;0.50;;;16.60;99.90;;;;;;5015917;28;20080;-70
2022/06/22 05:00:34;;;;;;;1.05;0.50;;;16.50;99.90;;;;;;5015471;28;20018;-70
2022/06/22 05:03:13;;;;;;;1.25;0.70;;;16.40;99.90;;;;;;5015674;28;20053;-70
2022/06/22 05:05:41;;;;;;;2.25;0.50;;;16.40;99.90;;;;;;5015363;28;20053;-71
2022/06/22 05:08:18;;;;;;;1.48;0.43;;;16.40;99.90;;;;;;5015429;28;20029;-71
2022/06/22 05:11:00;;;;;;;2.53;0.68;;;16.30;99.90;;;;;;5014000;28;20077;-71
2022/06/22 05:13:32;;;;;;;2.33;0.60;;;16.30;99.90;;;;;;5015176;28;20072;-71
2022/06/22 05:16:02;;;;;;;1.85;0.70;;;16.40;99.90;;;;;;5013531;28;20021;-71
2022/06/22 05:18:35;;;;;;;1.05;0.40;;;16.30;99.90;;;;;;5013863;28;20076;-71
2022/06/22 05:21:41;;;;;;;1.67;0.60;;;16.30;99.90;;;;;;5015086;28;20018;-71
2022/06/22 05:24:28;;;;;;;2.10;0.70;;;16.20;99.90;;;;;;5015038;28;20098;-71
2022/06/22 05:26:58;;;;;;;2.20;0.60;;;16.10;99.90;;;;;;5013614;28;20026;-71
2022/06/22 05:29:44;;;;;;;1.23;0.60;;;16.00;99.90;;;;;;5013542;28;20033;-71
2022/06/22 05:32:19;;;;;;;1.98;0.65;;;15.90;99.90;;;;;;5014899;28;20026;-71
2022/06/22 05:34:49;;;;;;;1.98;0.70;;;15.80;99.90;;;;;;5014842;28;20382;-72
2022/06/22 05:37:28;;;;;;;;;;;15.70;99.90;;;;;;5015317;28;20435;-72
2022/06/22 05:39:57;;;;;;;1.50;0.50;;;15.60;99.90;;;;;;5013446;28;19912;-72
2022/06/22 05:42:26;;;;;;;1.40;0.70;;;15.60;99.90;;;;;;5013378;28;20040;-71
2022/06/22 05:44:54;;;;;;;2.70;0.70;;;15.50;99.90;;;;;;5013181;28;20084;-72
2022/06/22 05:47:33;;;;;;;1.80;0.60;;;15.40;99.90;;;;;;5015060;28;20058;-72
2022/06/22 05:50:10;;;;;;;5.47;1.20;;;15.30;99.90;;;;;;5013128;28;20026;-72
2022/06/22 05:52:43;;;;;;;1.52;0.50;;;15.40;99.90;;;;;;5015084;28;20018;-72
2022/06/22 05:55:28;;;;;;;2.08;0.63;;;15.30;99.90;;;;;;5014367;28;20367;-72
2022/06/22 05:58:19;;;;;;;3.25;0.70;;;15.20;99.90;;;;;;5013146;28;20029;-71
2022/06/22 06:00:50;;;;;;;1.30;0.52;;;15.20;99.90;;;;;;5014384;28;20157;-72
2022/06/22 06:03:43;;;;;;;1.63;0.60;;;15.20;99.90;;;;;;5014533;28;20026;-72
2022/06/22 06:06:33;;;;;;;1.02;0.50;;;15.10;99.90;;;;;;5012674;28;20054;-72
2022/06/22 06:09:05;;;;;;;1.17;0.68;;;14.90;99.90;;;;;;5014386;28;20018;-72
2022/06/22 06:11:40;;;;;;;1.60;0.40;;;14.80;99.90;;;;;;5012884;28;20056;-71
2022/06/22 06:14:18;;;;;;;1.42;0.47;;;14.70;99.90;;;;;;5012861;28;20448;-71
2022/06/22 06:16:52;;;;;;;1.15;0.50;;;14.60;99.90;;;;;;5012885;28;20116;-71
2022/06/22 06:19:23;;;;;;;1.70;0.80;;;14.50;99.90;;;;;;5012836;28;20041;-72
2022/06/22 06:21:54;;;;;;;2.17;0.98;;;14.40;99.90;;;;;;5014136;28;20026;-72
2022/06/22 06:24:36;;;;;;;3.33;1.10;;;14.30;99.90;;;;;;5014268;28;20033;-71
2022/06/22 06:30:13;;;;;;;1.65;0.90;;;14.10;99.90;;;;;;5014261;28;20037;-72
2022/06/22 06:32:45;;;;;;;1.70;0.90;;;14.00;99.90;;;;;;5013766;28;20014;-71
2022/06/22 06:35:24;;;;;;;4.45;1.35;;;14.00;99.90;;;;;;5013892;28;20057;-71
2022/06/22 06:38:43;;;;;;;2.60;0.90;;;13.90;99.90;;;;;;5013947;28;20022;-72
2022/06/22 06:41:22;;;;;;;1.70;0.93;;;13.80;99.90;;;;;;4985053;28;20038;-72
2022/06/22 06:43:55;;;;;;;2.05;0.70;;;13.70;99.90;;;;;;5013728;28;20034;-72
2022/06/22 06:46:46;;;;;;;2.05;1.15;;;13.60;99.90;;;;;;5013449;28;20024;-71
2022/06/22 06:49:24;;;;;;;;;;;13.50;99.90;;;;;;5014030;28;20466;-70
2022/06/22 06:52:23;;;;;;;1.48;0.73;;;13.40;99.90;;;;;;5013349;28;19905;-71
2022/06/22 06:55:03;;;;;;;1.83;1.10;;;13.20;99.90;;;;;;5013458;28;20029;-72
2022/06/22 06:57:31;;;;;;;2.80;1.00;;;13.10;99.90;;;;;;5013599;28;20029;-72
2022/06/22 07:00:03;;;;;;;2.38;0.90;;;13.00;99.90;;;;;;5013394;28;20472;-72
2022/06/22 07:02:37;;;;;;;2.53;1.00;;;12.90;99.90;;;;;;5013275;28;20101;-71
2022/06/22 07:05:08;;;;;;;4.43;1.40;;;12.80;99.90;;;;;;5011902;28;20450;-72
2022/06/22 07:07:47;;;;;;;4.25;2.95;;;12.70;99.90;;;;;;5013056;28;20045;-72
2022/06/22 07:10:40;;;;;;;2.97;1.73;;;12.70;99.90;;;;;;5013749;28;20101;-72
2022/06/22 07:13:16;;;;;;;1.92;1.20;;;12.70;99.90;;;;;;5011396;28;20029;-71
2022/06/22 07:15:49;;;;;;;3.75;1.60;;;12.50;99.90;;;;;;5013054;28;20022;-72
2022/06/22 07:18:33;;;;;;;2.70;1.38;;;12.40;99.90;;;;;;5012882;28;20022;-72
2022/06/22 07:21:21;;;;;;;2.72;1.30;;;12.30;99.90;;;;;;5012939;28;20030;-71
2022/06/22 07:24:03;;;;;;;2.63;1.10;;;12.30;99.90;;;;;;5012977;28;20037;-71
2022/06/22 07:26:38;;;;;;;3.08;1.70;;;12.20;99.90;;;;;;5012791;28;20029;-71
2022/06/22 07:29:39;;;;;;;5.43;2.15;;;12.10;99.90;;;;;;5011548;28;20026;-71
2022/06/22 07:32:27;;;;;;;6.88;2.53;;;12.10;99.90;;;;;;5011609;28;20030;-70
2022/06/22 07:35:16;;;;;;;6.30;2.30;;;12.00;99.90;;;;;;5013329;28;20415;-71
2022/06/22 07:37:59;;;;;;;4.85;2.15;;;11.90;99.90;;;;;;5013466;28;20080;-71
2022/06/22 07:40:29;;;;;;;4.65;2.08;;;11.80;99.90;;;;;;5011541;28;20026;-71
2022/06/22 07:42:58;;;;;;;6.70;2.83;;;11.80;99.90;;;;;;5012920;28;20029;-71
2022/06/22 07:45:27;;;;;;;5.18;2.75;;;11.80;99.90;;;;;;5012904;28;20029;-71
2022/06/22 07:48:16;;;;;;;4.00;2.35;;;11.70;99.90;;;;;;5012686;28;20129;-72
2022/06/22 07:50:55;;;;;;;4.47;2.17;;;11.70;99.90;;;;;;5011675;28;20053;-72
2022/06/22 07:53:49;;;;;;;7.18;2.40;;;11.60;99.90;;;;;;5017054;28;20030;-72
2022/06/22 07:56:29;;;;;;;5.30;2.35;;;11.60;99.90;;;;;;5016822;28;20018;-71
2022/06/22 07:59:09;;;;;;;4.40;2.73;;;11.60;99.90;;;;;;5015584;28;20046;-72
2022/06/22 08:01:43;;;;;;;4.13;2.45;;;11.50;99.90;;;;;;5015464;28;20026;-72
2022/06/22 08:04:28;;;;;;;4.20;2.38;;;11.40;99.90;;;;;;5015175;28;20022;-71
2022/06/22 08:07:02;;;;;;;3.72;2.30;;;11.30;99.90;;;;;;5016517;28;20029;-72
2022/06/22 08:09:54;;;;;;;5.45;3.00;;;11.30;99.90;;;;;;5015476;28;20029;-71
2022/06/22 08:12:26;;;;;;;5.57;2.45;;;11.20;99.90;;;;;;5015012;28;20055;-71
2022/06/22 08:14:55;;;;;;;4.50;2.17;;;11.20;99.90;;;;;;5016690;28;20371;-71
2022/06/22 08:17:41;;;;;;;5.97;2.25;;;11.10;99.90;;;;;;5016396;28;20098;-71
2022/06/22 08:20:11;;;;;;;5.65;2.65;;;11.20;99.90;;;;;;5016793;28;20045;-71
2022/06/22 08:22:41;;;;;;;4.68;2.08;;;11.00;99.90;;;;;;5014898;28;20116;-71
2022/06/22 08:25:09;;;;;;;5.35;2.22;;;11.00;99.90;;;;;;5014815;28;20033;-72
2022/06/22 08:27:37;;;;;;;6.38;2.63;;;11.00;99.90;;;;;;5015284;28;20045;-72
2022/06/22 08:30:05;;;;;;;5.43;2.88;;;10.90;99.90;;;;;;5014681;28;20450;-72
2022/06/22 08:32:47;;;;;;;5.60;3.10;;;10.90;99.90;;;;;;5016083;28;20022;-71
2022/06/22 08:35:25;;;;;;;6.88;2.95;;;10.90;99.90;;;;;;5014801;28;20025;-72
2022/06/22 08:37:58;;;;;;;6.47;3.35;;;10.90;99.90;;;;;;5015808;28;20389;-71
2022/06/22 08:40:44;;;;;;;7.28;3.30;;;10.80;99.90;;;;;;5014491;28;20080;-70
2022/06/22 08:43:34;;;;;;;6.60;3.15;;;10.80;99.90;;;;;;5016060;28;20532;-69
2022/06/22 08:46:10;;;;;;;6.15;2.83;;;11.20;99.90;;;;;;5016338;28;20092;-71
2022/06/22 08:48:38;;;;;;;5.35;2.97;;;10.90;99.90;;;;;;5016048;28;20097;-70
2022/06/22 08:51:32;;;;;;;6.40;3.30;;;10.80;99.90;;;;;;5015748;28;20025;-70
2022/06/22 08:54:27;;;;;;;7.57;3.35;;;10.60;99.90;;;;;;5015710;28;20025;-71
2022/06/22 08:57:13;;;;;;;4.88;2.88;;;10.50;99.90;;;;;;5014143;28;20022;-70
2022/06/22 09:00:04;;;;;;;6.40;2.85;;;10.50;99.90;;;;;;5015636;28;20024;-71
2022/06/22 09:02:41;;;;;;;7.35;3.45;;;10.50;99.90;;;;;;5013795;28;20057;-72
2022/06/22 09:05:27;;;;;;;6.07;3.40;;;10.40;99.90;;;;;;5015497;28;20045;-71
2022/06/22 09:08:00;;;;;;;5.47;3.90;;;10.50;99.90;;;;;;5015833;28;20417;-71
2022/06/22 09:10:48;;;;;;;7.72;5.35;;;10.50;99.90;;;;;;5014962;28;20021;-71
2022/06/22 09:13:40;;;;;;;9.73;5.53;;;10.50;99.90;;;;;;5015442;28;20029;-71
2022/06/22 09:16:36;;;;;;;10.95;5.28;;;10.40;99.90;;;;;;5015479;28;20041;-71
2022/06/22 09:19:06;;;;;;;8.02;5.18;;;10.40;99.90;;;;;;5015339;28;20540;-69
2022/06/22 09:21:42;;;;;;;6.57;4.32;;;10.40;99.90;;;;;;5015235;28;20029;-70
2022/06/22 09:24:30;;;;;;;6.90;4.75;;;10.30;99.90;;;;;;5015571;28;20032;-69
2022/06/22 09:27:27;;;;;;;12.93;5.13;;;10.40;99.90;;;;;;5015194;28;20034;-70
2022/06/22 09:30:22;;;;;;;9.85;5.45;;;10.30;99.90;;;;;;5015091;28;20028;-70
2022/06/22 09:33:18;;;;;;;9.02;5.00;;;10.30;99.90;;;;;;5015536;28;20037;-70
2022/06/22 09:36:14;;;;;;;8.73;5.28;;;10.30;99.90;;;;;;5015225;28;20425;-70
2022/06/22 09:39:11;;;;;;;9.35;5.95;;;10.20;99.90;;;;;;5014980;28;20022;-69
2022/06/22 09:42:00;;;;;;;9.68;5.53;;;10.20;99.90;;;;;;5014901;28;20031;-69
2022/06/22 09:44:39;;;;;;;8.50;5.38;;;10.10;99.90;;;;;;5014862;28;20045;-71
2022/06/22 09:47:19;;;;;;;10.13;5.15;;;10.10;99.90;;;;;;5014775;28;20037;-71
2022/06/22 09:50:13;;;;;;;8.18;4.80;;;10.00;99.90;;;;;;5013591;28;20022;-71
2022/06/22 09:52:59;;;;;;;9.07;5.15;;;9.90;99.90;;;;;;5014791;28;20018;-70
2022/06/22 09:59:00;;;;;;;8.50;5.35;;;9.80;99.90;;;;;;5014574;28;20032;-71
2022/06/22 10:01:48;;;;;;;8.77;5.32;;;9.80;99.90;;;;;;5014555;28;20052;-71
2022/06/22 10:04:52;;;;;;;8.98;5.63;;;9.80;99.90;;;;;;5014460;28;20026;-73
2022/06/22 10:07:25;;;;;;;8.02;5.32;;;9.80;99.90;;;;;;5014516;28;20038;-70
2022/06/22 10:10:27;;;;;;;8.25;5.38;;;9.80;99.90;;;;;;5013002;28;20417;-70
2022/06/22 10:12:55;;;;;;;8.15;4.97;;;9.70;99.90;;;;;;5014370;28;20069;-70
2022/06/22 10:15:28;;;;;;;10.90;5.70;;;9.70;99.90;;;;;;5013506;28;20025;-70
2022/06/22 10:18:32;;;;;;;10.20;5.75;;;9.60;99.90;;;;;;5014239;28;20030;-70
2022/06/22 10:21:17;;;;;;;10.32;5.28;;;9.60;99.90;;;;;;5012666;28;20026;-69
2022/06/22 10:24:31;;;;;;;10.80;5.80;;;9.40;99.90;;;;;;5012781;28;20484;-69
2022/06/22 10:27:17;;;;;;;11.38;6.05;;;9.40;99.90;;;;;;5007617;28;20037;-69
2022/06/22 10:30:18;;;;;;;10.52;5.68;;;9.30;99.90;;;;;;5013911;28;20021;-70
2022/06/22 10:32:57;;;;;;;;;;;9.30;99.90;;;;;;5013424;28;20072;-69
2022/06/22 10:35:24;;;;;;;8.50;5.70;;;9.30;99.90;;;;;;5013829;28;20365;-69
2022/06/22 10:38:00;;;;;;;9.07;6.03;;;9.30;99.90;;;;;;5014350;28;20080;-71
2022/06/22 10:46:56;;;;;;;11.25;6.38;;;9.20;99.90;;;;;;5013528;28;20069;-71
2022/06/22 10:49:41;;;;;;;9.27;5.60;;;9.20;99.90;;;;;;5013630;28;20540;-71
2022/06/22 10:52:11;;;;;;;11.30;5.75;;;9.20;99.90;;;;;;5013663;28;20092;-71
2022/06/22 10:55:17;;;;;;;10.40;6.10;;;9.10;99.90;;;;;;5013476;28;20036;-71
2022/06/22 10:58:03;;;;;;;9.70;5.65;;;9.10;99.90;;;;;;5013408;28;20084;-71
2022/06/22 11:00:56;;;;;;;11.15;6.10;;;9.20;99.90;;;;;;5013751;28;20018;-70
2022/06/22 11:03:41;;;;;;;9.13;5.70;;;9.10;99.90;;;;;;5013941;28;20037;-70
2022/06/22 11:06:48;;;;;;;8.80;6.50;;;9.10;99.90;;;;;;5013149;28;20054;-70
2022/06/22 11:09:48;;;;;;;10.48;6.68;;;9.10;99.90;;;;;;5004643;28;20034;-70
2022/06/22 11:12:21;;;;;;;10.52;6.78;;;9.10;99.90;;;;;;5010798;28;20566;-70
2022/06/22 11:15:07;;;;;;;8.68;6.40;;;9.10;99.90;;;;;;5013764;28;20198;-71
2022/06/22 11:18:00;;;;;;;11.00;6.97;;;9.00;99.90;;;;;;5011871;28;20036;-70
2022/06/22 11:20:28;;;;;;;11.40;6.88;;;8.90;99.90;;;;;;5012756;28;20042;-70
2022/06/22 11:23:00;;;;;;;9.00;6.40;;;8.90;99.90;;;;;;5013327;28;20022;-71
2022/06/22 11:32:20;;;;;;;5.88;3.65;;;9.10;99.90;;;;;;5013236;28;20555;-71
2022/06/22 11:35:05;;;;;;;5.55;3.42;;;9.50;99.90;;;;;;4993210;28;20022;-71
2022/06/22 11:37:44;;;;;;;7.22;4.28;;;9.70;99.90;;;;;;5013078;28;20037;-71
2022/06/22 11:40:46;;;;;;;6.72;3.53;;;9.90;99.90;;;;;;5012897;28;20025;-71
2022/06/22 11:43:34;;;;;;;6.55;3.80;;;10.10;99.90;;;;;;5012235;28;20097;-71
2022/06/22 11:46:23;;;;;;;5.85;3.63;;;10.30;99.90;;;;;;5013133;28;20076;-70
2022/06/22 11:49:31;;;;;;;5.38;3.65;;;10.30;99.90;;;;;;5012799;28;20022;-70
2022/06/22 11:52:33;;;;;;;6.80;4.07;;;10.30;99.90;;;;;;5011510;28;20018;-70
2022/06/22 11:55:39;;;;;;;5.72;3.63;;;10.20;99.90;;;;;;4972272;28;20027;-71
2022/06/22 11:58:18;;;;;;;8.35;3.53;;;10.40;99.90;;;;;;5013301;28;20030;-71
2022/06/22 12:01:03;;;;;;;6.68;3.83;;;10.40;99.90;;;;;;5012804;28;20389;-71
2022/06/22 12:03:31;;;;;;;4.97;3.30;;;10.40;99.90;;;;;;5012907;28;20568;-70
2022/06/22 12:06:34;;;;;;;8.35;4.10;;;10.30;99.90;;;;;;5012509;28;20463;-71
2022/06/22 12:09:04;;;;;;;7.13;3.40;;;10.40;99.90;;;;;;5012864;28;20033;-71
2022/06/22 12:11:39;;;;;;;6.57;4.03;;;10.50;99.90;;;;;;5011460;28;20371;-71
2022/06/22 12:17:44;;;;;;;5.95;3.47;;;10.40;99.90;;;;;;5008828;28;20033;-70
2022/06/22 12:20:43;;;;;;;7.85;3.80;;;10.40;99.90;;;;;;5012662;28;20018;-70
2022/06/22 12:23:29;;;;;;;7.38;3.20;;;10.40;99.90;;;;;;4976800;28;20090;-70
2022/06/22 12:26:02;;;;;;;14.50;3.92;;;10.30;99.90;;;;;;5011510;28;20026;-70
2022/06/22 12:29:06;;;;;;;6.15;2.97;;;10.30;99.90;;;;;;5010549;28;20579;-70
2022/06/22 12:31:59;;;;;;;4.40;2.35;;;10.30;99.90;;;;;;5012478;28;20025;-70
2022/06/22 12:34:30;;;;;;;5.03;2.65;;;10.20;99.90;;;;;;5012601;28;20160;-70
2022/06/22 12:37:15;;;;;;;3.97;1.90;;;10.20;99.90;;;;;;5013235;28;20022;-70
2022/06/22 12:39:48;;;;;;;6.13;2.97;;;10.20;99.90;;;;;;5015954;28;20041;-71
2022/06/22 12:42:27;;;;;;;5.15;2.83;;;10.30;99.90;;;;;;5014666;28;20037;-70
2022/06/22 12:44:54;;;;;;;4.50;2.60;;;10.30;99.90;;;;;;5016477;28;20467;-71
2022/06/22 12:47:46;;;;;;;4.88;2.60;;;10.20;99.90;;;;;;5015782;28;20044;-70
2022/06/22 12:50:34;;;;;;;4.60;2.33;;;10.10;99.90;;;;;;5014666;28;20517;-70
2022/06/22 12:53:07;;;;;;;5.47;2.60;;;10.00;99.90;;;;;;5015748;28;20489;-69
2022/06/22 12:55:48;;;;;;;7.28;2.58;;;10.00;99.90;;;;;;5015641;28;20022;-71
2022/06/22 12:58:24;;;;;;;4.03;2.17;;;9.90;99.90;;;;;;5015799;28;20030;-70
2022/06/22 13:00:55;;;;;;;4.03;2.38;;;9.90;99.90;;;;;;5015707;28;20481;-71
2022/06/22 13:03:33;;;;;;;5.82;1.90;;;9.90;99.90;;;;;;5015844;28;20466;-70
2022/06/22 13:06:00;;;;;;;4.38;2.45;;;9.90;99.90;;;;;;5015268;28;20173;-70
2022/06/22 13:08:29;;;;;;;4.80;2.30;;;9.90;99.90;;;;;;5015363;28;20026;-70
2022/06/22 13:11:07;;;;;;;5.70;2.83;;;9.90;99.90;;;;;;5014046;28;20085;-71
2022/06/22 13:13:50;;;;;;;3.53;2.63;;;9.90;99.90;;;;;;5014023;28;20030;-70
2022/06/22 13:16:27;;;;;;;2.92;2.45;;;9.90;99.90;;;;;;5015268;28;20025;-70
2022/06/22 13:19:30;;;;;;;4.10;2.08;;;9.80;99.90;;;;;;5015311;28;20482;-71
2022/06/22 13:22:27;;;;;;;4.28;2.20;;;9.80;99.90;;;;;;5015216;28;20086;-70
2022/06/22 13:25:03;;;;;;;5.13;1.88;;;9.80;99.90;;;;;;5013802;28;20037;-69
2022/06/22 13:27:45;;;;;;;3.42;2.08;;;9.90;99.90;;;;;;5014990;28;20137;-69
2022/06/22 13:31:02;;;;;;;5.95;2.55;;;9.90;99.90;;;;;;5015106;28;20026;-69
2022/06/22 13:33:47;;;;;;;3.97;2.55;;;9.90;99.90;;;;;;4997707;28;20114;-70
2022/06/22 13:36:28;;;;;;;4.60;2.53;;;9.80;99.90;;;;;;5015029;28;20101;-69
2022/06/22 13:39:06;;;;;;;4.35;2.78;;;9.70;99.90;;;;;;5014973;28;20018;-70
2022/06/22 13:41:53;;;;;;;4.85;2.42;;;9.70;99.90;;;;;;5015185;28;20026;-70
2022/06/22 13:44:40;;;;;;;6.25;2.90;;;9.70;99.90;;;;;;5013465;28;20045;-70
2022/06/22 13:47:49;;;;;;;3.45;2.30;;;9.80;99.90;;;;;;5015190;28;20053;-70
2022/06/22 13:50:50;;;;;;;7.28;2.70;;;9.80;99.90;;;;;;5009826;28;20430;-70
2022/06/22 13:53:45;;;;;;;4.10;2.35;;;9.90;99.90;;;;;;5014311;28;20057;-70
2022/06/22 13:56:31;;;;;;;5.03;2.38;;;9.90;99.90;;;;;;5014742;28;20034;-70
2022/06/22 13:59:03;;;;;;;5.63;2.67;;;9.90;99.90;;;;;;5013231;28;20109;-70
2022/06/22 14:01:38;;;;;;;4.22;1.83;;;10.00;99.90;;;;;;5014566;28;20474;-70
2022/06/22 14:04:13;;;;;;;4.22;1.70;;;10.10;99.90;;;;;;5014320;28;20429;-69
2022/06/22 14:06:59;;;;;;;4.07;1.73;;;10.00;99.90;;;;;;5014120;28;20054;-70
2022/06/22 14:09:39;;;;;;;3.10;1.80;;;10.10;99.90;;;;;;5014250;28;20022;-70
2022/06/22 14:12:36;;;;;;;3.58;1.50;;;10.10;99.90;;;;;;5014527;28;20022;-70
2022/06/22 14:15:06;;;;;;;3.53;1.92;;;10.10;99.90;;;;;;5014302;28;20105;-70
2022/06/22 14:18:01;;;;;;;2.42;1.52;;;10.20;99.90;;;;;;5014174;28;20104;-70
2022/06/22 14:21:08;;;;;;;4.43;2.03;;;10.20;99.90;;;;;;5012840;28;20026;-71
2022/06/22 14:23:37;;;;;;;4.20;1.90;;;10.10;99.90;;;;;;4973012;28;20035;-71
2022/06/22 14:26:24;;;;;;;3.17;1.50;;;10.10;99.90;;;;;;5006522;28;20042;-70
2022/06/22 14:29:14;;;;;;;2.65;1.50;;;10.20;99.90;;;;;;5012698;28;20574;-70